sensor_id;sensor_type;location;lat;lon;timestamp;temperature;humidity
22442;DHT22;11388;54.456;9.752;2022-11-20T00:00:52;3.60;99.90
22442;DHT22;11388;54.456;9.752;2022-11-20T00:03:18;3.70;99.90
22442;DHT22;11388;54.456;9.752;2022-11-20T00:05:44;3.70;99.90
22442;DHT22;11388;54.456;9.752;2022-11-20T00:08:10;3.70;99.90
22442;DHT22;11388;54.456;9.752;2022-11-20T00:10:39;3.70;99.90
22442;DHT22;11388;54.456;9.752;2022-11-20T00:13:06;3.70;99.90
22442;DHT22;11388;54.456;9.752;2022-11-20T00:15:32;3.80;99.90
22442;DHT22;11388;54.456;9.752;2022-11-20T00:17:57;3.80;99.90
22442;DHT22;11388;54.456;9.752;2022-11-20T00:20:23;3.70;99.90
22442;DHT22;11388;54.456;9.752;2022-11-20T00:22:49;3.80;99.90
22442;DHT22;11388;54.456;9.752;2022-11-20T00:25:15;3.80;99.90
22442;DHT22;11388;54.456;9.752;2022-11-20T00:27:41;3.80;99.90
22442;DHT22;11388;54.456;9.752;2022-11-20T00:30:07;3.70;99.90
22442;DHT22;11388;54.456;9.752;2022-11-20T00:32:33;3.80;99.90
22442;DHT22;11388;54.456;9.752;2022-11-20T00:34:59;3.70;99.90
22442;DHT22;11388;54.456;9.752;2022-11-20T00:37:24;3.80;99.90
22442;DHT22;11388;54.456;9.752;2022-11-20T00:39:50;3.70;99.90
22442;DHT22;11388;54.456;9.752;2022-11-20T00:42:25;3.60;99.90
22442;DHT22;11388;54.456;9.752;2022-11-20T00:44:51;3.60;99.90
22442;DHT22;11388;54.456;9.752;2022-11-20T00:47:16;3.60;99.90
22442;DHT22;11388;54.456;9.752;2022-11-20T00:49:42;3.50;99.90
22442;DHT22;11388;54.456;9.752;2022-11-20T00:52:08;3.50;99.90
22442;DHT22;11388;54.456;9.752;2022-11-20T00:54:33;3.50;99.90
22442;DHT22;11388;54.456;9.752;2022-11-20T00:56:59;3.40;99.90
22442;DHT22;11388;54.456;9.752;2022-11-20T00:59:25;3.40;99.90
22442;DHT22;11388;54.456;9.752;2022-11-20T01:01:50;3.40;99.90
22442;DHT22;11388;54.456;9.752;2022-11-20T01:04:16;3.40;99.90
22442;DHT22;11388;54.456;9.752;2022-11-20T01:06:42;3.30;99.90
22442;DHT22;11388;54.456;9.752;2022-11-20T01:09:11;3.30;99.90
22442;DHT22;11388;54.456;9.752;2022-11-20T01:11:39;3.30;99.90
22442;DHT22;11388;54.456;9.752;2022-11-20T01:14:09;3.30;99.90
22442;DHT22;11388;54.456;9.752;2022-11-20T01:16:37;3.40;99.90
22442;DHT22;11388;54.456;9.752;2022-11-20T01:19:07;3.40;99.90
22442;DHT22;11388;54.456;9.752;2022-11-20T01:21:35;3.40;99.90
22442;DHT22;11388;54.456;9.752;2022-11-20T01:24:05;3.30;99.90
22442;DHT22;11388;54.456;9.752;2022-11-20T01:26:34;3.40;99.90
22442;DHT22;11388;54.456;9.752;2022-11-20T01:29:01;3.30;99.90
22442;DHT22;11388;54.456;9.752;2022-11-20T01:31:36;3.30;99.90
22442;DHT22;11388;54.456;9.752;2022-11-20T01:34:09;3.20;99.90
22442;DHT22;11388;54.456;9.752;2022-11-20T01:36:36;3.20;99.90
22442;DHT22;11388;54.456;9.752;2022-11-20T01:39:11;3.30;99.90
22442;DHT22;11388;54.456;9.752;2022-11-20T01:41:37;3.30;99.90
22442;DHT22;11388;54.456;9.752;2022-11-20T01:47:09;3.30;99.90
22442;DHT22;11388;54.456;9.752;2022-11-20T01:49:53;3.40;99.90
22442;DHT22;11388;54.456;9.752;2022-11-20T01:52:24;3.30;99.90
22442;DHT22;11388;54.456;9.752;2022-11-20T01:55:01;3.20;99.90
22442;DHT22;11388;54.456;9.752;2022-11-20T01:57:29;3.30;99.90
22442;DHT22;11388;54.456;9.752;2022-11-20T02:00:09;3.30;99.90
22442;DHT22;11388;54.456;9.752;2022-11-20T02:02:37;3.30;99.90
22442;DHT22;11388;54.456;9.752;2022-11-20T02:05:12;3.30;99.90
22442;DHT22;11388;54.456;9.752;2022-11-20T02:07:40;3.30;99.90
22442;DHT22;11388;54.456;9.752;2022-11-20T02:10:06;3.20;99.90
22442;DHT22;11388;54.456;9.752;2022-11-20T02:12:32;3.30;99.90
22442;DHT22;11388;54.456;9.752;2022-11-20T02:15:17;3.20;99.90
22442;DHT22;11388;54.456;9.752;2022-11-20T02:17:42;3.20;99.90
22442;DHT22;11388;54.456;9.752;2022-11-20T02:20:08;3.20;99.90
22442;DHT22;11388;54.456;9.752;2022-11-20T02:22:47;3.20;99.90
22442;DHT22;11388;54.456;9.752;2022-11-20T02:25:14;3.10;99.90
22442;DHT22;11388;54.456;9.752;2022-11-20T02:27:40;3.10;99.90
22442;DHT22;11388;54.456;9.752;2022-11-20T02:30:06;3.20;99.90
22442;DHT22;11388;54.456;9.752;2022-11-20T02:32:37;3.20;99.90
22442;DHT22;11388;54.456;9.752;2022-11-20T02:37:56;3.20;99.90
22442;DHT22;11388;54.456;9.752;2022-11-20T02:40:23;3.20;99.90
22442;DHT22;11388;54.456;9.752;2022-11-20T02:42:59;3.30;99.90
22442;DHT22;11388;54.456;9.752;2022-11-20T02:45:25;3.30;99.90
22442;DHT22;11388;54.456;9.752;2022-11-20T02:47:51;3.30;99.90
22442;DHT22;11388;54.456;9.752;2022-11-20T02:50:17;3.40;99.90
22442;DHT22;11388;54.456;9.752;2022-11-20T02:52:43;3.50;99.90
22442;DHT22;11388;54.456;9.752;2022-11-20T02:55:09;3.50;99.90
22442;DHT22;11388;54.456;9.752;2022-11-20T02:57:34;3.50;99.90
22442;DHT22;11388;54.456;9.752;2022-11-20T03:00:00;3.50;99.90
22442;DHT22;11388;54.456;9.752;2022-11-20T03:05:48;3.60;99.90
22442;DHT22;11388;54.456;9.752;2022-11-20T03:08:13;3.50;99.90
22442;DHT22;11388;54.456;9.752;2022-11-20T03:10:39;3.60;99.90
22442;DHT22;11388;54.456;9.752;2022-11-20T03:13:05;3.50;99.90
22442;DHT22;11388;54.456;9.752;2022-11-20T03:15:30;3.60;99.90
22442;DHT22;11388;54.456;9.752;2022-11-20T03:17:56;3.60;99.90
22442;DHT22;11388;54.456;9.752;2022-11-20T03:20:22;3.60;99.90
22442;DHT22;11388;54.456;9.752;2022-11-20T03:22:48;3.50;99.90
22442;DHT22;11388;54.456;9.752;2022-11-20T03:25:14;3.60;99.90
22442;DHT22;11388;54.456;9.752;2022-11-20T03:27:40;3.60;99.90
22442;DHT22;11388;54.456;9.752;2022-11-20T03:30:06;3.70;99.90
22442;DHT22;11388;54.456;9.752;2022-11-20T03:32:32;3.70;99.90
22442;DHT22;11388;54.456;9.752;2022-11-20T03:34:57;3.60;99.90
22442;DHT22;11388;54.456;9.752;2022-11-20T03:37:23;3.60;99.90
22442;DHT22;11388;54.456;9.752;2022-11-20T03:39:49;3.60;99.90
22442;DHT22;11388;54.456;9.752;2022-11-20T03:42:39;3.60;99.90
22442;DHT22;11388;54.456;9.752;2022-11-20T03:45:12;3.60;99.90
22442;DHT22;11388;54.456;9.752;2022-11-20T03:47:38;3.70;99.90
22442;DHT22;11388;54.456;9.752;2022-11-20T03:50:04;3.80;99.90
22442;DHT22;11388;54.456;9.752;2022-11-20T03:52:30;3.70;99.90
22442;DHT22;11388;54.456;9.752;2022-11-20T03:54:56;3.60;99.90
22442;DHT22;11388;54.456;9.752;2022-11-20T03:57:21;3.60;99.90
22442;DHT22;11388;54.456;9.752;2022-11-20T03:59:47;3.60;99.90
22442;DHT22;11388;54.456;9.752;2022-11-20T04:02:13;3.60;99.90
22442;DHT22;11388;54.456;9.752;2022-11-20T04:04:38;3.60;99.90
22442;DHT22;11388;54.456;9.752;2022-11-20T04:07:04;3.50;99.90
22442;DHT22;11388;54.456;9.752;2022-11-20T04:09:30;3.50;99.90
22442;DHT22;11388;54.456;9.752;2022-11-20T04:11:55;3.50;99.90
22442;DHT22;11388;54.456;9.752;2022-11-20T04:14:21;3.50;99.90
22442;DHT22;11388;54.456;9.752;2022-11-20T04:16:46;3.60;99.90
22442;DHT22;11388;54.456;9.752;2022-11-20T04:19:14;3.50;99.90
22442;DHT22;11388;54.456;9.752;2022-11-20T04:21:41;3.50;99.90
22442;DHT22;11388;54.456;9.752;2022-11-20T04:24:07;3.40;99.90
22442;DHT22;11388;54.456;9.752;2022-11-20T04:26:34;3.40;99.90
22442;DHT22;11388;54.456;9.752;2022-11-20T04:29:00;3.40;99.90
22442;DHT22;11388;54.456;9.752;2022-11-20T04:31:30;3.40;99.90
22442;DHT22;11388;54.456;9.752;2022-11-20T04:34:01;3.50;99.90
22442;DHT22;11388;54.456;9.752;2022-11-20T04:36:29;3.50;99.90
22442;DHT22;11388;54.456;9.752;2022-11-20T04:39:00;3.40;99.90
22442;DHT22;11388;54.456;9.752;2022-11-20T04:41:29;3.40;99.90
22442;DHT22;11388;54.456;9.752;2022-11-20T04:43:57;3.30;99.90
22442;DHT22;11388;54.456;9.752;2022-11-20T04:46:30;3.40;99.90
22442;DHT22;11388;54.456;9.752;2022-11-20T04:48:56;3.30;99.90
22442;DHT22;11388;54.456;9.752;2022-11-20T04:51:22;3.40;99.90
22442;DHT22;11388;54.456;9.752;2022-11-20T04:53:48;3.40;99.90
22442;DHT22;11388;54.456;9.752;2022-11-20T04:56:14;3.40;99.90
22442;DHT22;11388;54.456;9.752;2022-11-20T04:58:40;3.40;99.90
22442;DHT22;11388;54.456;9.752;2022-11-20T05:01:19;3.30;99.90
22442;DHT22;11388;54.456;9.752;2022-11-20T05:03:59;3.30;99.90
22442;DHT22;11388;54.456;9.752;2022-11-20T05:06:57;3.30;99.90
22442;DHT22;11388;54.456;9.752;2022-11-20T05:15:51;3.10;99.90
22442;DHT22;11388;54.456;9.752;2022-11-20T05:18:20;3.10;99.90
22442;DHT22;11388;54.456;9.752;2022-11-20T05:27:35;3.20;99.90
22442;DHT22;11388;54.456;9.752;2022-11-20T05:37:06;3.20;99.90
22442;DHT22;11388;54.456;9.752;2022-11-20T05:42:12;3.10;99.90
22442;DHT22;11388;54.456;9.752;2022-11-20T05:52:09;3.20;99.90
22442;DHT22;11388;54.456;9.752;2022-11-20T05:58:15;3.10;99.90
22442;DHT22;11388;54.456;9.752;2022-11-20T06:00:52;3.10;99.90
22442;DHT22;11388;54.456;9.752;2022-11-20T06:03:28;3.00;99.90
22442;DHT22;11388;54.456;9.752;2022-11-20T06:05:54;3.00;99.90
22442;DHT22;11388;54.456;9.752;2022-11-20T06:08:25;3.00;99.90
22442;DHT22;11388;54.456;9.752;2022-11-20T06:19:01;2.90;99.90
22442;DHT22;11388;54.456;9.752;2022-11-20T06:25:28;2.90;99.90
22442;DHT22;11388;54.456;9.752;2022-11-20T06:31:26;2.90;99.90
22442;DHT22;11388;54.456;9.752;2022-11-20T06:34:05;2.90;99.90
22442;DHT22;11388;54.456;9.752;2022-11-20T06:40:25;2.80;99.90
22442;DHT22;11388;54.456;9.752;2022-11-20T06:42:54;2.80;99.90
22442;DHT22;11388;54.456;9.752;2022-11-20T06:45:25;2.70;99.90
22442;DHT22;11388;54.456;9.752;2022-11-20T06:47:59;2.80;99.90
22442;DHT22;11388;54.456;9.752;2022-11-20T06:50:25;2.80;99.90
22442;DHT22;11388;54.456;9.752;2022-11-20T06:53:05;2.80;99.90
22442;DHT22;11388;54.456;9.752;2022-11-20T06:55:34;2.90;99.90
22442;DHT22;11388;54.456;9.752;2022-11-20T06:58:00;2.80;99.90
22442;DHT22;11388;54.456;9.752;2022-11-20T07:00:36;2.80;99.90
22442;DHT22;11388;54.456;9.752;2022-11-20T07:03:20;2.80;99.90
22442;DHT22;11388;54.456;9.752;2022-11-20T07:06:00;2.80;99.90
22442;DHT22;11388;54.456;9.752;2022-11-20T07:08:29;2.80;99.90
22442;DHT22;11388;54.456;9.752;2022-11-20T07:45:29;2.50;99.90
22442;DHT22;11388;54.456;9.752;2022-11-20T07:48:15;2.60;99.90
22442;DHT22;11388;54.456;9.752;2022-11-20T07:50:52;2.70;99.90
22442;DHT22;11388;54.456;9.752;2022-11-20T07:53:57;2.60;99.90
22442;DHT22;11388;54.456;9.752;2022-11-20T07:57:00;2.60;99.90
22442;DHT22;11388;54.456;9.752;2022-11-20T07:59:29;2.60;99.90
22442;DHT22;11388;54.456;9.752;2022-11-20T08:32:40;2.70;99.90
22442;DHT22;11388;54.456;9.752;2022-11-20T08:35:09;2.80;99.90
22442;DHT22;11388;54.456;9.752;2022-11-20T08:37:49;2.70;99.90
22442;DHT22;11388;54.456;9.752;2022-11-20T08:40:15;2.70;99.90
22442;DHT22;11388;54.456;9.752;2022-11-20T08:42:50;2.70;99.90
22442;DHT22;11388;54.456;9.752;2022-11-20T08:45:17;2.70;99.90
22442;DHT22;11388;54.456;9.752;2022-11-20T08:47:44;2.70;99.90
22442;DHT22;11388;54.456;9.752;2022-11-20T08:50:11;2.80;99.90
22442;DHT22;11388;54.456;9.752;2022-11-20T08:52:37;2.70;99.90
22442;DHT22;11388;54.456;9.752;2022-11-20T08:55:04;2.80;99.90
22442;DHT22;11388;54.456;9.752;2022-11-20T08:57:37;2.70;99.90
22442;DHT22;11388;54.456;9.752;2022-11-20T09:00:05;2.70;99.90
22442;DHT22;11388;54.456;9.752;2022-11-20T09:02:34;2.80;99.90
22442;DHT22;11388;54.456;9.752;2022-11-20T09:05:07;2.80;99.90
22442;DHT22;11388;54.456;9.752;2022-11-20T09:07:36;2.80;99.90
22442;DHT22;11388;54.456;9.752;2022-11-20T09:10:07;2.90;99.90
22442;DHT22;11388;54.456;9.752;2022-11-20T09:12:36;3.00;99.90
22442;DHT22;11388;54.456;9.752;2022-11-20T09:15:11;3.00;99.90
22442;DHT22;11388;54.456;9.752;2022-11-20T09:17:41;3.00;99.90
22442;DHT22;11388;54.456;9.752;2022-11-20T09:22:40;3.10;99.90
22442;DHT22;11388;54.456;9.752;2022-11-20T09:25:09;3.20;99.90
22442;DHT22;11388;54.456;9.752;2022-11-20T09:27:40;3.40;99.90
22442;DHT22;11388;54.456;9.752;2022-11-20T09:30:12;3.60;99.90
22442;DHT22;11388;54.456;9.752;2022-11-20T09:32:50;3.70;99.90
22442;DHT22;11388;54.456;9.752;2022-11-20T09:35:21;3.70;99.90
22442;DHT22;11388;54.456;9.752;2022-11-20T09:37:53;3.60;99.90
22442;DHT22;11388;54.456;9.752;2022-11-20T09:40:24;3.50;99.90
22442;DHT22;11388;54.456;9.752;2022-11-20T09:46:07;3.30;99.90
22442;DHT22;11388;54.456;9.752;2022-11-20T09:54:22;3.10;99.90
22442;DHT22;11388;54.456;9.752;2022-11-20T09:56:56;3.10;99.90
22442;DHT22;11388;54.456;9.752;2022-11-20T10:06:08;3.30;99.90
22442;DHT22;11388;54.456;9.752;2022-11-20T10:11:52;3.30;99.90
22442;DHT22;11388;54.456;9.752;2022-11-20T10:14:49;3.30;99.90
22442;DHT22;11388;54.456;9.752;2022-11-20T10:17:26;3.40;99.90
22442;DHT22;11388;54.456;9.752;2022-11-20T10:20:14;3.40;99.90
22442;DHT22;11388;54.456;9.752;2022-11-20T10:28:54;3.40;99.90
22442;DHT22;11388;54.456;9.752;2022-11-20T10:31:32;3.40;99.90
22442;DHT22;11388;54.456;9.752;2022-11-20T10:34:03;3.40;99.90
22442;DHT22;11388;54.456;9.752;2022-11-20T10:36:43;3.40;99.90
22442;DHT22;11388;54.456;9.752;2022-11-20T10:41:42;3.50;99.90
22442;DHT22;11388;54.456;9.752;2022-11-20T10:44:21;3.40;99.90
22442;DHT22;11388;54.456;9.752;2022-11-20T10:47:17;3.40;99.90
22442;DHT22;11388;54.456;9.752;2022-11-20T10:49:51;3.50;99.90
22442;DHT22;11388;54.456;9.752;2022-11-20T11:00:34;3.50;99.90
22442;DHT22;11388;54.456;9.752;2022-11-20T11:03:29;3.50;99.90
22442;DHT22;11388;54.456;9.752;2022-11-20T11:08:36;3.60;99.90
22442;DHT22;11388;54.456;9.752;2022-11-20T11:11:25;3.60;99.90
22442;DHT22;11388;54.456;9.752;2022-11-20T11:14:07;3.70;99.90
22442;DHT22;11388;54.456;9.752;2022-11-20T11:22:23;3.90;99.90
22442;DHT22;11388;54.456;9.752;2022-11-20T11:24:53;3.90;99.90
22442;DHT22;11388;54.456;9.752;2022-11-20T11:27:24;4.00;99.90
22442;DHT22;11388;54.456;9.752;2022-11-20T11:30:11;4.00;99.90
22442;DHT22;11388;54.456;9.752;2022-11-20T11:32:38;4.10;99.90
22442;DHT22;11388;54.456;9.752;2022-11-20T11:35:06;4.20;99.90
22442;DHT22;11388;54.456;9.752;2022-11-20T11:37:41;4.30;99.90
22442;DHT22;11388;54.456;9.752;2022-11-20T11:40:11;4.60;99.90
22442;DHT22;11388;54.456;9.752;2022-11-20T11:42:48;4.90;99.90
22442;DHT22;11388;54.456;9.752;2022-11-20T11:49:23;6.20;99.90
22442;DHT22;11388;54.456;9.752;2022-11-20T11:52:17;6.90;99.90
22442;DHT22;11388;54.456;9.752;2022-11-20T12:00:04;6.80;99.90
22442;DHT22;11388;54.456;9.752;2022-11-20T12:05:50;6.10;99.90
22442;DHT22;11388;54.456;9.752;2022-11-20T12:08:36;5.90;99.90
22442;DHT22;11388;54.456;9.752;2022-11-20T12:11:34;5.60;99.90
22442;DHT22;11388;54.456;9.752;2022-11-20T12:14:13;5.70;99.90
22442;DHT22;11388;54.456;9.752;2022-11-20T12:16:40;5.70;99.90
22442;DHT22;11388;54.456;9.752;2022-11-20T12:19:13;5.70;99.90
22442;DHT22;11388;54.456;9.752;2022-11-20T12:30:10;5.30;99.90
22442;DHT22;11388;54.456;9.752;2022-11-20T12:36:28;5.50;99.90
22442;DHT22;11388;54.456;9.752;2022-11-20T12:41:43;5.20;99.90
22442;DHT22;11388;54.456;9.752;2022-11-20T12:50:28;5.00;99.90
22442;DHT22;11388;54.456;9.752;2022-11-20T12:53:05;4.80;99.90
22442;DHT22;11388;54.456;9.752;2022-11-20T13:06:48;4.70;99.90
22442;DHT22;11388;54.456;9.752;2022-11-20T13:09:17;4.60;99.90
22442;DHT22;11388;54.456;9.752;2022-11-20T13:14:19;4.60;99.90
22442;DHT22;11388;54.456;9.752;2022-11-20T13:17:04;4.60;99.90
22442;DHT22;11388;54.456;9.752;2022-11-20T13:19:30;4.50;99.90
22442;DHT22;11388;54.456;9.752;2022-11-20T13:21:59;4.30;99.90
22442;DHT22;11388;54.456;9.752;2022-11-20T13:25:01;4.20;99.90
22442;DHT22;11388;54.456;9.752;2022-11-20T13:27:33;4.30;99.90
22442;DHT22;11388;54.456;9.752;2022-11-20T13:30:48;4.40;99.90
22442;DHT22;11388;54.456;9.752;2022-11-20T13:37:25;4.30;99.90
22442;DHT22;11388;54.456;9.752;2022-11-20T13:43:08;4.30;99.90
22442;DHT22;11388;54.456;9.752;2022-11-20T13:46:15;4.40;99.90
22442;DHT22;11388;54.456;9.752;2022-11-20T13:48:52;4.50;99.90
22442;DHT22;11388;54.456;9.752;2022-11-20T15:29:04;2.90;99.90
22442;DHT22;11388;54.456;9.752;2022-11-20T15:35:27;2.70;99.90
22442;DHT22;11388;54.456;9.752;2022-11-20T15:57:53;2.20;99.90
22442;DHT22;11388;54.456;9.752;2022-11-20T16:04:16;2.30;99.90
22442;DHT22;11388;54.456;9.752;2022-11-20T16:10:15;2.20;99.90
22442;DHT22;11388;54.456;9.752;2022-11-20T16:12:42;2.10;99.90
22442;DHT22;11388;54.456;9.752;2022-11-20T16:15:39;2.10;99.90
22442;DHT22;11388;54.456;9.752;2022-11-20T16:25:27;1.90;99.90
22442;DHT22;11388;54.456;9.752;2022-11-20T16:28:19;1.90;99.90
22442;DHT22;11388;54.456;9.752;2022-11-20T16:34:19;1.90;99.90
22442;DHT22;11388;54.456;9.752;2022-11-20T16:36:47;1.80;99.90
22442;DHT22;11388;54.456;9.752;2022-11-20T16:39:25;1.90;99.90
22442;DHT22;11388;54.456;9.752;2022-11-20T16:45:25;1.80;99.90
22442;DHT22;11388;54.456;9.752;2022-11-20T16:51:28;1.70;99.90
22442;DHT22;11388;54.456;9.752;2022-11-20T16:54:22;1.80;99.90
22442;DHT22;11388;54.456;9.752;2022-11-20T16:56:54;1.80;99.90
22442;DHT22;11388;54.456;9.752;2022-11-20T16:59:20;1.70;99.90
22442;DHT22;11388;54.456;9.752;2022-11-20T17:01:46;1.70;99.90
22442;DHT22;11388;54.456;9.752;2022-11-20T17:04:20;1.70;99.90
22442;DHT22;11388;54.456;9.752;2022-11-20T17:06:54;1.70;99.90
22442;DHT22;11388;54.456;9.752;2022-11-20T17:09:34;1.70;99.90
22442;DHT22;11388;54.456;9.752;2022-11-20T17:12:36;1.70;99.90
22442;DHT22;11388;54.456;9.752;2022-11-20T17:18:09;1.70;99.90
22442;DHT22;11388;54.456;9.752;2022-11-20T17:24:26;1.70;99.90
22442;DHT22;11388;54.456;9.752;2022-11-20T17:26:54;1.70;99.90
22442;DHT22;11388;54.456;9.752;2022-11-20T17:29:23;1.70;99.90
22442;DHT22;11388;54.456;9.752;2022-11-20T17:39:04;1.70;99.90
22442;DHT22;11388;54.456;9.752;2022-11-20T17:42:06;1.60;99.90
22442;DHT22;11388;54.456;9.752;2022-11-20T17:45:13;1.50;99.90
22442;DHT22;11388;54.456;9.752;2022-11-20T17:48:38;1.40;99.90
22442;DHT22;11388;54.456;9.752;2022-11-20T17:51:12;1.40;99.90
22442;DHT22;11388;54.456;9.752;2022-11-20T17:53:44;1.30;99.90
22442;DHT22;11388;54.456;9.752;2022-11-20T17:56:17;1.30;99.90
22442;DHT22;11388;54.456;9.752;2022-11-20T17:59:10;1.50;99.90
22442;DHT22;11388;54.456;9.752;2022-11-20T18:01:57;1.40;99.90
22442;DHT22;11388;54.456;9.752;2022-11-20T18:04:29;1.40;99.90
22442;DHT22;11388;54.456;9.752;2022-11-20T18:06:54;1.40;99.90
22442;DHT22;11388;54.456;9.752;2022-11-20T18:09:28;1.40;99.90
22442;DHT22;11388;54.456;9.752;2022-11-20T18:28:50;1.30;99.90
22442;DHT22;11388;54.456;9.752;2022-11-20T18:31:19;1.30;99.90
22442;DHT22;11388;54.456;9.752;2022-11-20T18:33:45;1.20;99.90
22442;DHT22;11388;54.456;9.752;2022-11-20T18:39:49;1.20;99.90
22442;DHT22;11388;54.456;9.752;2022-11-20T18:45:44;1.20;99.90
22442;DHT22;11388;54.456;9.752;2022-11-20T19:02:22;1.10;99.90
22442;DHT22;11388;54.456;9.752;2022-11-20T19:05:00;1.00;99.90
22442;DHT22;11388;54.456;9.752;2022-11-20T19:10:49;1.00;99.90
22442;DHT22;11388;54.456;9.752;2022-11-20T19:13:19;0.90;99.90
22442;DHT22;11388;54.456;9.752;2022-11-20T19:19:11;1.00;99.90
22442;DHT22;11388;54.456;9.752;2022-11-20T19:22:03;1.00;99.90
22442;DHT22;11388;54.456;9.752;2022-11-20T19:24:37;1.00;99.90
22442;DHT22;11388;54.456;9.752;2022-11-20T19:27:03;0.80;99.90
22442;DHT22;11388;54.456;9.752;2022-11-20T19:29:32;0.80;99.90
22442;DHT22;11388;54.456;9.752;2022-11-20T19:32:01;0.80;99.90
22442;DHT22;11388;54.456;9.752;2022-11-20T19:34:37;0.80;99.90
22442;DHT22;11388;54.456;9.752;2022-11-20T19:37:03;0.80;99.90
22442;DHT22;11388;54.456;9.752;2022-11-20T19:39:31;0.80;99.90
22442;DHT22;11388;54.456;9.752;2022-11-20T19:42:12;0.80;99.90
22442;DHT22;11388;54.456;9.752;2022-11-20T19:44:44;1.00;99.90
22442;DHT22;11388;54.456;9.752;2022-11-20T19:47:23;1.00;99.90
22442;DHT22;11388;54.456;9.752;2022-11-20T19:50:22;1.00;99.90
22442;DHT22;11388;54.456;9.752;2022-11-20T19:57:02;1.10;99.90
22442;DHT22;11388;54.456;9.752;2022-11-20T19:59:45;1.20;99.90
22442;DHT22;11388;54.456;9.752;2022-11-20T20:02:11;1.20;99.90
22442;DHT22;11388;54.456;9.752;2022-11-20T20:04:37;1.30;99.90
22442;DHT22;11388;54.456;9.752;2022-11-20T20:13:12;1.30;99.90
22442;DHT22;11388;54.456;9.752;2022-11-20T20:19:01;1.20;99.90
22442;DHT22;11388;54.456;9.752;2022-11-20T20:21:31;1.20;99.90
22442;DHT22;11388;54.456;9.752;2022-11-20T20:23:59;1.20;99.90
22442;DHT22;11388;54.456;9.752;2022-11-20T20:26:27;1.10;99.90
22442;DHT22;11388;54.456;9.752;2022-11-20T20:28:53;1.10;99.90
22442;DHT22;11388;54.456;9.752;2022-11-20T20:31:22;1.10;99.90
22442;DHT22;11388;54.456;9.752;2022-11-20T20:37:13;1.00;99.90
22442;DHT22;11388;54.456;9.752;2022-11-20T20:39:39;1.10;99.90
22442;DHT22;11388;54.456;9.752;2022-11-20T20:42:05;1.20;99.90
22442;DHT22;11388;54.456;9.752;2022-11-20T20:44:30;1.20;99.90
22442;DHT22;11388;54.456;9.752;2022-11-20T20:47:14;1.20;99.90
22442;DHT22;11388;54.456;9.752;2022-11-20T20:49:40;1.20;99.90
22442;DHT22;11388;54.456;9.752;2022-11-20T20:52:08;1.20;99.90
22442;DHT22;11388;54.456;9.752;2022-11-20T20:54:34;1.20;99.90
22442;DHT22;11388;54.456;9.752;2022-11-20T20:57:00;1.10;99.90
22442;DHT22;11388;54.456;9.752;2022-11-20T20:59:26;1.10;99.90
22442;DHT22;11388;54.456;9.752;2022-11-20T21:01:51;1.10;99.90
22442;DHT22;11388;54.456;9.752;2022-11-20T21:04:17;1.10;99.90
22442;DHT22;11388;54.456;9.752;2022-11-20T21:06:43;1.10;99.90
22442;DHT22;11388;54.456;9.752;2022-11-20T21:09:08;1.10;99.90
22442;DHT22;11388;54.456;9.752;2022-11-20T21:11:34;1.10;99.90
22442;DHT22;11388;54.456;9.752;2022-11-20T21:14:00;1.20;99.90
22442;DHT22;11388;54.456;9.752;2022-11-20T21:16:25;1.20;99.90
22442;DHT22;11388;54.456;9.752;2022-11-20T21:18:51;1.10;99.90
22442;DHT22;11388;54.456;9.752;2022-11-20T21:21:17;1.10;99.90
22442;DHT22;11388;54.456;9.752;2022-11-20T21:24:02;1.10;99.90
22442;DHT22;11388;54.456;9.752;2022-11-20T21:26:28;1.10;99.90
22442;DHT22;11388;54.456;9.752;2022-11-20T21:28:56;1.10;99.90
22442;DHT22;11388;54.456;9.752;2022-11-20T21:31:23;1.10;99.90
22442;DHT22;11388;54.456;9.752;2022-11-20T21:33:52;1.00;99.90
22442;DHT22;11388;54.456;9.752;2022-11-20T21:36:20;1.00;99.90
22442;DHT22;11388;54.456;9.752;2022-11-20T21:38:47;0.90;99.90
22442;DHT22;11388;54.456;9.752;2022-11-20T21:41:13;0.80;99.90
22442;DHT22;11388;54.456;9.752;2022-11-20T21:43:40;0.80;99.90
22442;DHT22;11388;54.456;9.752;2022-11-20T21:46:10;0.80;99.90
22442;DHT22;11388;54.456;9.752;2022-11-20T21:48:37;0.80;99.90
22442;DHT22;11388;54.456;9.752;2022-11-20T21:51:09;0.80;99.90
22442;DHT22;11388;54.456;9.752;2022-11-20T21:53:51;0.80;99.90
22442;DHT22;11388;54.456;9.752;2022-11-20T21:56:19;0.80;99.90
22442;DHT22;11388;54.456;9.752;2022-11-20T21:58:46;0.70;99.90
22442;DHT22;11388;54.456;9.752;2022-11-20T22:01:17;0.70;99.90
22442;DHT22;11388;54.456;9.752;2022-11-20T22:03:48;0.70;99.90
22442;DHT22;11388;54.456;9.752;2022-11-20T22:06:15;0.70;99.90
22442;DHT22;11388;54.456;9.752;2022-11-20T22:08:40;0.60;99.90
22442;DHT22;11388;54.456;9.752;2022-11-20T22:11:09;0.60;99.90
22442;DHT22;11388;54.456;9.752;2022-11-20T22:13:36;0.50;99.90
22442;DHT22;11388;54.456;9.752;2022-11-20T22:16:21;0.50;99.90
22442;DHT22;11388;54.456;9.752;2022-11-20T22:18:49;0.50;99.90
22442;DHT22;11388;54.456;9.752;2022-11-20T22:21:17;0.60;99.90
22442;DHT22;11388;54.456;9.752;2022-11-20T22:23:43;0.60;99.90
22442;DHT22;11388;54.456;9.752;2022-11-20T22:26:15;0.50;99.90
22442;DHT22;11388;54.456;9.752;2022-11-20T22:28:42;0.60;99.90
22442;DHT22;11388;54.456;9.752;2022-11-20T22:31:09;0.50;99.90
22442;DHT22;11388;54.456;9.752;2022-11-20T22:33:36;0.40;99.90
22442;DHT22;11388;54.456;9.752;2022-11-20T22:38:29;0.50;99.90
22442;DHT22;11388;54.456;9.752;2022-11-20T22:41:06;0.50;99.90
22442;DHT22;11388;54.456;9.752;2022-11-20T22:43:33;0.40;99.90
22442;DHT22;11388;54.456;9.752;2022-11-20T22:46:18;0.30;99.90
22442;DHT22;11388;54.456;9.752;2022-11-20T22:51:15;0.30;99.90
22442;DHT22;11388;54.456;9.752;2022-11-20T22:53:41;0.40;99.90
22442;DHT22;11388;54.456;9.752;2022-11-20T22:56:09;0.40;99.90
22442;DHT22;11388;54.456;9.752;2022-11-20T22:58:36;0.40;99.90
22442;DHT22;11388;54.456;9.752;2022-11-20T23:03:38;0.30;99.90
22442;DHT22;11388;54.456;9.752;2022-11-20T23:06:04;0.30;99.90
22442;DHT22;11388;54.456;9.752;2022-11-20T23:08:30;0.30;99.90
22442;DHT22;11388;54.456;9.752;2022-11-20T23:13:25;0.30;99.90
22442;DHT22;11388;54.456;9.752;2022-11-20T23:15:51;0.20;99.90
22442;DHT22;11388;54.456;9.752;2022-11-20T23:18:17;0.20;99.90
22442;DHT22;11388;54.456;9.752;2022-11-20T23:20:43;0.20;99.90
22442;DHT22;11388;54.456;9.752;2022-11-20T23:23:17;0.30;99.90
22442;DHT22;11388;54.456;9.752;2022-11-20T23:25:43;0.20;99.90
22442;DHT22;11388;54.456;9.752;2022-11-20T23:28:09;0.20;99.90
22442;DHT22;11388;54.456;9.752;2022-11-20T23:30:34;0.30;99.90
22442;DHT22;11388;54.456;9.752;2022-11-20T23:33:12;0.30;99.90
22442;DHT22;11388;54.456;9.752;2022-11-20T23:35:38;0.30;99.90
22442;DHT22;11388;54.456;9.752;2022-11-20T23:38:04;0.30;99.90
22442;DHT22;11388;54.456;9.752;2022-11-20T23:40:30;0.30;99.90
22442;DHT22;11388;54.456;9.752;2022-11-20T23:42:56;0.30;99.90
22442;DHT22;11388;54.456;9.752;2022-11-20T23:45:39;0.20;99.90
22442;DHT22;11388;54.456;9.752;2022-11-20T23:48:06;0.20;99.90
22442;DHT22;11388;54.456;9.752;2022-11-20T23:50:32;0.10;99.90
22442;DHT22;11388;54.456;9.752;2022-11-20T23:52:57;0.00;99.90